Time;durP1;ratioP1;P1;durP2;ratioP2;P2;SDS_P1;SDS_P2;PMS_P1;PMS_P2;Temp;Humidity;BMP_temperature;BMP_pressure;BME280_temperature;BME280_humidity;BME280_pressure;Samples;Min_cycle;Max_cycle;Signal;HPM_P1;HPM_P2
2020/12/08 00:02:04;;;;;;;11.57;9.48;;;15.80;60.00;;;;;;5094905;28;20442;-63
2020/12/08 00:04:30;;;;;;;11.77;9.57;;;15.80;59.90;;;;;;5094801;28;20063;-64
2020/12/08 00:06:56;;;;;;;12.10;9.90;;;15.70;59.90;;;;;;5094623;28;20291;-63
2020/12/08 00:09:21;;;;;;;12.38;10.60;;;15.70;59.90;;;;;;5094864;28;20077;-63
2020/12/08 00:11:47;;;;;;;11.75;9.45;;;15.70;59.90;;;;;;5094500;28;20480;-63
2020/12/08 00:14:13;;;;;;;12.65;9.95;;;15.70;59.90;;;;;;5094662;28;20035;-64
2020/12/08 00:16:39;;;;;;;11.48;9.23;;;15.70;59.90;;;;;;5093299;28;20016;-63
2020/12/08 00:19:05;;;;;;;11.60;9.07;;;15.60;59.90;;;;;;5094548;28;20035;-63
2020/12/08 00:21:31;;;;;;;11.57;10.07;;;15.80;60.00;;;;;;5094595;28;20471;-64
2020/12/08 00:23:57;;;;;;;11.30;9.70;;;15.60;59.90;;;;;;5094387;28;20063;-64
2020/12/08 00:26:23;;;;;;;10.98;8.82;;;15.60;59.80;;;;;;5094270;28;20024;-63
2020/12/08 00:28:49;;;;;;;10.98;9.45;;;15.60;60.00;;;;;;5094459;28;20016;-63
2020/12/08 00:31:14;;;;;;;10.68;8.75;;;15.60;59.90;;;;;;5094431;28;20519;-63
2020/12/08 00:33:40;;;;;;;10.70;8.68;;;15.70;59.90;;;;;;5081129;27;20048;-64
2020/12/08 00:36:05;;;;;;;10.98;8.18;;;15.70;59.70;;;;;;5073726;28;20024;-63
2020/12/08 00:38:31;;;;;;;9.18;7.63;;;15.70;59.60;;;;;;5073884;28;20082;-64
2020/12/08 00:40:57;;;;;;;9.75;8.23;;;15.80;59.60;;;;;;5073688;28;20481;-64
2020/12/08 00:43:22;;;;;;;8.95;8.05;;;15.70;59.60;;;;;;5073641;28;20032;-63
2020/12/08 00:45:48;;;;;;;9.07;8.10;;;15.80;59.60;;;;;;5073786;28;20035;-63
2020/12/08 00:48:14;;;;;;;10.25;8.70;;;15.80;59.60;;;;;;5073706;28;20103;-64
2020/12/08 00:50:39;;;;;;;9.50;7.53;;;15.80;59.40;;;;;;5073739;28;20016;-63
2020/12/08 00:53:05;;;;;;;9.32;7.72;;;15.90;59.50;;;;;;5073314;28;20033;-63
2020/12/08 00:55:36;;;;;;;9.50;7.80;;;15.90;59.50;;;;;;5073520;28;20032;-64
2020/12/08 00:58:02;;;;;;;8.57;7.60;;;15.80;59.50;;;;;;5055284;28;20090;-63
2020/12/08 01:00:28;;;;;;;7.90;7.10;;;15.80;59.80;;;;;;5073497;28;20021;-63
2020/12/08 01:02:53;;;;;;;10.02;8.05;;;15.80;59.70;;;;;;5073350;28;20017;-63
2020/12/08 01:05:19;;;;;;;9.57;8.55;;;15.80;59.70;;;;;;5073325;28;20063;-64
2020/12/08 01:07:45;;;;;;;8.25;7.45;;;15.80;59.80;;;;;;5073390;28;20032;-64
2020/12/08 01:10:10;;;;;;;10.05;7.85;;;15.70;59.90;;;;;;5073368;28;20425;-63
2020/12/08 01:12:37;;;;;;;8.88;7.82;;;15.70;59.40;;;;;;5073351;28;20016;-64
2020/12/08 01:15:03;;;;;;;8.60;7.50;;;15.70;59.50;;;;;;5073246;28;20362;-63
2020/12/08 01:17:32;;;;;;;8.40;7.28;;;15.70;59.60;;;;;;5073248;28;20654;-63
2020/12/08 01:19:58;;;;;;;9.65;7.93;;;15.60;59.50;;;;;;5072642;28;20070;-64
2020/12/08 01:22:23;;;;;;;8.23;7.35;;;15.60;59.60;;;;;;5072838;28;20131;-63
2020/12/08 01:24:49;;;;;;;9.80;8.18;;;15.60;59.50;;;;;;5072704;28;20033;-64
2020/12/08 01:27:15;;;;;;;9.35;7.43;;;15.60;59.50;;;;;;5072551;28;20056;-64
2020/12/08 01:29:41;;;;;;;9.40;7.57;;;15.60;59.50;;;;;;5072975;28;20466;-63
2020/12/08 01:32:07;;;;;;;9.80;7.85;;;15.50;59.50;;;;;;5072989;28;20525;-64
2020/12/08 01:34:33;;;;;;;8.38;7.57;;;15.50;59.40;;;;;;5074111;27;20059;-64
2020/12/08 01:36:58;;;;;;;9.10;7.13;;;15.60;59.70;;;;;;5072912;28;20024;-63
2020/12/08 01:39:24;;;;;;;7.80;7.00;;;15.60;59.40;;;;;;5072629;28;20063;-63
2020/12/08 01:41:57;;;;;;;10.50;7.38;;;15.50;59.30;;;;;;5072760;28;20028;-64
2020/12/08 01:44:23;;;;;;;7.60;6.80;;;15.70;59.40;;;;;;5072786;28;20096;-64
2020/12/08 01:46:49;;;;;;;8.93;6.80;;;15.70;59.40;;;;;;5072666;28;20252;-63
2020/12/08 01:49:15;;;;;;;7.72;6.68;;;15.70;59.20;;;;;;5072587;28;20507;-64
2020/12/08 01:51:41;;;;;;;8.30;7.07;;;15.70;59.20;;;;;;5072326;28;20021;-64
2020/12/08 01:54:07;;;;;;;7.25;6.20;;;15.80;59.20;;;;;;5072375;28;20474;-63
2020/12/08 01:56:33;;;;;;;7.43;6.70;;;16.00;59.30;;;;;;5072692;28;20100;-64
2020/12/08 01:58:58;;;;;;;7.95;6.05;;;15.80;59.10;;;;;;5072386;28;20162;-63
2020/12/08 02:01:24;;;;;;;6.68;5.95;;;15.90;59.10;;;;;;5072369;28;20031;-63
2020/12/08 02:03:50;;;;;;;7.40;6.10;;;15.80;59.10;;;;;;5072315;28;20029;-63
2020/12/08 02:06:16;;;;;;;6.72;5.82;;;15.80;59.00;;;;;;5072290;28;20482;-64
2020/12/08 02:08:42;;;;;;;6.93;5.82;;;15.90;59.10;;;;;;5072375;28;20028;-64
2020/12/08 02:11:07;;;;;;;8.55;6.30;;;15.80;59.80;;;;;;5072286;28;20016;-64
2020/12/08 02:13:33;;;;;;;6.68;5.75;;;15.80;59.30;;;;;;5072264;28;20025;-63
2020/12/08 02:16:00;;;;;;;7.95;6.28;;;15.80;59.40;;;;;;5072573;28;20434;-64
2020/12/08 02:18:26;;;;;;;7.03;6.32;;;15.80;59.50;;;;;;5072458;28;20024;-64
2020/12/08 02:20:56;;;;;;;7.38;6.13;;;15.70;59.60;;;;;;5072217;28;20501;-63
2020/12/08 02:23:22;;;;;;;7.97;6.10;;;15.70;59.30;;;;;;5072628;28;20024;-64
2020/12/08 02:26:10;;;;;;;6.82;6.05;;;15.70;59.40;;;;;;5072016;28;20541;-64
2020/12/08 02:28:36;;;;;;;7.95;6.60;;;15.70;59.50;;;;;;5072041;28;20116;-63
2020/12/08 02:31:01;;;;;;;7.32;6.10;;;15.60;59.40;;;;;;5072066;28;20111;-64
2020/12/08 02:33:28;;;;;;;7.45;6.15;;;15.60;59.20;;;;;;5081777;27;20048;-63
2020/12/08 02:35:55;;;;;;;8.73;6.80;;;15.60;59.20;;;;;;5092297;28;20501;-63
2020/12/08 02:38:22;;;;;;;8.00;6.53;;;15.60;59.20;;;;;;5092389;28;20028;-63
2020/12/08 02:40:48;;;;;;;6.70;5.97;;;15.50;59.20;;;;;;5094772;28;20017;-63
2020/12/08 02:43:14;;;;;;;6.63;5.47;;;15.50;59.30;;;;;;5096492;28;20035;-63
2020/12/08 02:45:41;;;;;;;6.60;5.75;;;15.50;59.40;;;;;;5096341;28;20028;-64
2020/12/08 02:48:07;;;;;;;6.80;5.40;;;15.60;59.30;;;;;;5096431;28;20063;-64
2020/12/08 02:50:33;;;;;;;6.30;5.55;;;15.60;59.10;;;;;;5096409;28;20016;-63
2020/12/08 02:52:58;;;;;;;6.28;5.55;;;15.60;59.10;;;;;;5096291;28;20489;-63
2020/12/08 02:55:24;;;;;;;6.30;5.57;;;15.70;59.00;;;;;;5095964;28;20122;-64
2020/12/08 02:57:50;;;;;;;5.85;5.22;;;15.70;59.00;;;;;;5095991;28;20017;-63
2020/12/08 03:00:15;;;;;;;6.55;5.13;;;15.70;58.90;;;;;;5096081;28;20035;-63
2020/12/08 03:02:41;;;;;;;6.53;5.55;;;15.70;58.80;;;;;;5096195;28;20020;-63
2020/12/08 03:05:06;;;;;;;5.60;5.00;;;15.80;58.80;;;;;;5095725;28;20028;-63
2020/12/08 03:07:32;;;;;;;7.10;5.38;;;15.80;58.80;;;;;;5095680;28;20497;-63
2020/12/08 03:09:58;;;;;;;5.45;4.95;;;15.80;58.70;;;;;;5095500;28;20028;-64
2020/12/08 03:12:24;;;;;;;6.97;5.65;;;15.80;58.70;;;;;;5095912;28;20032;-63
2020/12/08 03:14:50;;;;;;;5.65;4.78;;;15.80;58.70;;;;;;5095790;28;20028;-63
2020/12/08 03:17:15;;;;;;;6.07;5.10;;;15.90;58.70;;;;;;5095740;28;20058;-63
2020/12/08 03:19:41;;;;;;;7.38;5.07;;;15.80;58.70;;;;;;5095548;28;20021;-64
2020/12/08 03:22:06;;;;;;;6.40;5.72;;;15.90;59.40;;;;;;5095802;28;20065;-63
2020/12/08 03:24:32;;;;;;;7.70;5.50;;;15.80;58.80;;;;;;5095470;28;20051;-63
2020/12/08 03:26:57;;;;;;;6.43;5.35;;;15.80;58.90;;;;;;5095721;28;20031;-63
2020/12/08 03:29:23;;;;;;;5.63;4.95;;;15.80;58.90;;;;;;5095458;28;20470;-64
2020/12/08 03:31:49;;;;;;;6.03;5.43;;;15.70;58.90;;;;;;5095623;28;20099;-63
2020/12/08 03:34:15;;;;;;;6.35;5.53;;;15.80;58.90;;;;;;5095767;27;20040;-63
2020/12/08 03:36:40;;;;;;;6.05;5.43;;;15.70;58.80;;;;;;5095187;28;20509;-64
2020/12/08 03:39:06;;;;;;;6.28;5.05;;;15.70;59.10;;;;;;5095489;28;20028;-64
2020/12/08 03:41:32;;;;;;;6.45;5.80;;;15.70;59.00;;;;;;5095419;28;20016;-63
2020/12/08 03:43:57;;;;;;;6.28;5.38;;;15.70;58.80;;;;;;5094950;28;20032;-63
2020/12/08 03:46:25;;;;;;;6.40;5.47;;;15.60;58.70;;;;;;5094893;28;20115;-63
2020/12/08 03:48:51;;;;;;;7.30;6.32;;;15.60;58.80;;;;;;5095243;28;20032;-63
2020/12/08 03:51:19;;;;;;;6.32;5.60;;;15.60;58.70;;;;;;5095123;28;20032;-63
2020/12/08 03:53:45;;;;;;;5.80;5.20;;;15.50;58.70;;;;;;5094900;28;20017;-63
2020/12/08 03:56:14;;;;;;;7.90;5.68;;;15.60;58.80;;;;;;5095060;28;20054;-64
2020/12/08 03:58:40;;;;;;;5.70;4.93;;;15.60;58.70;;;;;;5095265;28;20016;-63
2020/12/08 04:01:11;;;;;;;6.72;5.00;;;15.60;58.60;;;;;;5094367;28;20026;-64
2020/12/08 04:03:37;;;;;;;5.85;5.13;;;15.70;58.60;;;;;;5094930;28;20060;-63
2020/12/08 04:06:04;;;;;;;5.35;4.82;;;15.70;58.50;;;;;;5094919;28;20501;-63
2020/12/08 04:08:29;;;;;;;6.35;5.50;;;15.70;58.50;;;;;;5094647;28;20107;-64
2020/12/08 04:10:55;;;;;;;5.57;4.88;;;15.70;58.50;;;;;;5094904;28;20048;-63
2020/12/08 04:13:21;;;;;;;6.30;4.80;;;15.80;58.50;;;;;;5094789;28;20502;-64
2020/12/08 04:15:47;;;;;;;5.97;5.00;;;15.80;58.40;;;;;;5094633;28;20028;-63
2020/12/08 04:18:13;;;;;;;4.72;4.30;;;15.80;58.40;;;;;;5094612;28;20012;-63
2020/12/08 04:20:45;;;;;;;5.90;4.55;;;15.80;58.40;;;;;;5094689;28;20038;-64
2020/12/08 04:23:12;;;;;;;5.40;4.85;;;15.90;58.40;;;;;;5094537;28;20115;-63
2020/12/08 04:25:38;;;;;;;5.32;4.78;;;15.90;58.30;;;;;;5094245;28;20516;-63
2020/12/08 04:28:05;;;;;;;5.47;4.53;;;15.90;58.30;;;;;;5094450;28;20103;-63
2020/12/08 04:30:31;;;;;;;4.93;4.43;;;15.90;58.30;;;;;;5094433;28;20099;-63
2020/12/08 04:32:56;;;;;;;5.25;4.68;;;15.90;58.30;;;;;;5094878;28;20823;-63
2020/12/08 04:35:22;;;;;;;5.85;4.72;;;15.90;58.30;;;;;;5094434;28;20038;-64
2020/12/08 04:37:47;;;;;;;7.10;5.10;;;15.80;58.30;;;;;;5094278;28;20158;-64
2020/12/08 04:40:13;;;;;;;6.22;5.10;;;15.80;58.20;;;;;;5094351;28;20028;-63
2020/12/08 04:42:49;;;;;;;6.30;5.35;;;15.80;58.20;;;;;;5094170;28;20178;-63
2020/12/08 04:45:16;;;;;;;6.65;5.07;;;15.80;58.20;;;;;;5094205;28;20032;-63
2020/12/08 04:47:44;;;;;;;6.03;5.00;;;15.80;58.20;;;;;;5094032;28;20021;-64
2020/12/08 04:50:11;;;;;;;6.03;5.00;;;15.80;58.30;;;;;;5094107;28;20102;-63
2020/12/08 04:52:37;;;;;;;5.15;4.65;;;15.80;58.30;;;;;;5094003;28;20024;-63
2020/12/08 04:55:03;;;;;;;6.05;4.88;;;15.70;58.30;;;;;;5093722;28;20023;-63
2020/12/08 04:57:29;;;;;;;6.88;5.05;;;15.80;58.40;;;;;;5094036;28;20436;-63
2020/12/08 05:00:08;;;;;;;5.93;4.88;;;15.70;58.50;;;;;;5093885;28;20089;-64
2020/12/08 05:02:48;;;;;;;5.60;4.90;;;15.60;58.20;;;;;;5074859;28;20122;-63
2020/12/08 05:05:15;;;;;;;;;;;15.60;58.20;;;;;;5093939;28;20032;-64
2020/12/08 05:07:40;;;;;;;6.30;5.18;;;15.60;58.30;;;;;;5093772;28;19904;-64
2020/12/08 05:10:06;;;;;;;5.63;5.00;;;15.60;58.40;;;;;;5093616;28;20512;-64
2020/12/08 05:12:31;;;;;;;5.38;4.63;;;15.60;58.40;;;;;;5093704;28;20434;-64
2020/12/08 05:14:57;;;;;;;5.53;4.93;;;15.60;58.30;;;;;;5093370;28;20024;-63
2020/12/08 05:17:26;;;;;;;6.43;4.55;;;15.60;58.20;;;;;;5093315;28;20055;-64
2020/12/08 05:20:04;;;;;;;5.78;5.20;;;15.60;58.20;;;;;;5093503;28;20103;-64
2020/12/08 05:22:30;;;;;;;4.88;4.38;;;15.70;58.20;;;;;;5093504;28;20028;-63
2020/12/08 05:25:16;;;;;;;5.30;4.22;;;15.60;58.00;;;;;;5093304;28;20436;-63
2020/12/08 05:27:52;;;;;;;6.88;4.30;;;15.60;58.00;;;;;;5093315;28;20059;-63
2020/12/08 05:30:18;;;;;;;5.45;4.80;;;15.70;58.20;;;;;;5093015;28;20525;-63
2020/12/08 05:32:45;;;;;;;5.00;4.47;;;15.70;58.30;;;;;;5093499;27;20108;-63
2020/12/08 05:35:12;;;;;;;5.53;4.57;;;15.70;58.20;;;;;;5093269;28;20428;-63
2020/12/08 05:37:44;;;;;;;5.03;4.45;;;15.70;58.30;;;;;;5092900;28;20086;-63
2020/12/08 05:40:13;;;;;;;4.85;4.28;;;15.70;58.30;;;;;;5093135;28;20028;-63
2020/12/08 05:42:41;;;;;;;5.05;4.53;;;15.70;58.20;;;;;;5092981;28;20027;-62
2020/12/08 05:45:09;;;;;;;5.43;4.00;;;15.80;58.20;;;;;;5092927;28;20074;-62
2020/12/08 05:47:49;;;;;;;4.80;4.30;;;15.70;58.10;;;;;;5092774;28;20016;-62
2020/12/08 05:50:16;;;;;;;4.30;3.90;;;15.70;58.10;;;;;;5092930;28;20027;-62
2020/12/08 05:52:51;;;;;;;5.00;4.50;;;15.70;58.00;;;;;;5092926;28;20383;-62
2020/12/08 05:55:19;;;;;;;4.90;4.40;;;15.70;58.10;;;;;;5092950;28;20059;-62
2020/12/08 05:57:46;;;;;;;4.50;4.10;;;15.70;58.40;;;;;;5092569;28;20016;-62
2020/12/08 06:00:26;;;;;;;4.55;4.13;;;15.70;58.40;;;;;;5092587;28;20020;-62
2020/12/08 06:02:53;;;;;;;4.82;4.13;;;15.70;58.30;;;;;;5106143;28;20385;-62
2020/12/08 06:05:30;;;;;;;4.50;4.10;;;15.70;58.30;;;;;;5113106;28;20024;-62
2020/12/08 06:07:56;;;;;;;4.28;3.80;;;15.70;58.30;;;;;;5113166;28;20111;-62
2020/12/08 06:10:21;;;;;;;4.80;4.30;;;15.70;58.30;;;;;;5113157;28;20410;-62
2020/12/08 06:12:57;;;;;;;4.38;3.90;;;15.70;58.20;;;;;;5112925;28;20409;-62
2020/12/08 06:15:24;;;;;;;4.05;3.65;;;15.80;58.60;;;;;;5096680;28;20023;-62
2020/12/08 06:17:51;;;;;;;5.30;4.28;;;15.80;58.50;;;;;;5117415;28;20064;-63
2020/12/08 06:20:17;;;;;;;4.45;4.03;;;15.80;58.40;;;;;;5117391;28;20016;-62
2020/12/08 06:22:53;;;;;;;3.97;3.58;;;15.80;58.30;;;;;;5117381;28;20623;-62
2020/12/08 06:25:19;;;;;;;4.20;3.67;;;15.80;58.10;;;;;;5117183;28;20032;-61
2020/12/08 06:27:45;;;;;;;4.30;3.90;;;15.80;58.10;;;;;;5117239;28;20225;-63
2020/12/08 06:30:10;;;;;;;4.13;3.72;;;15.80;57.70;;;;;;5116867;28;20020;-63
2020/12/08 06:32:36;;;;;;;3.80;3.50;;;15.90;57.50;;;;;;5117039;28;20034;-63
2020/12/08 06:35:13;;;;;;;5.82;4.28;;;16.00;57.20;;;;;;5079829;27;20115;-63
2020/12/08 06:37:45;;;;;;;4.47;3.80;;;15.90;57.10;;;;;;5075899;28;20060;-63
2020/12/08 06:40:19;;;;;;;4.75;3.80;;;15.90;57.00;;;;;;5076298;28;20024;-63
2020/12/08 06:42:46;;;;;;;4.43;4.03;;;15.90;57.00;;;;;;5076304;28;20279;-63
2020/12/08 06:45:17;;;;;;;6.10;4.13;;;16.00;57.00;;;;;;5075101;28;20055;-64
2020/12/08 06:47:44;;;;;;;4.25;3.70;;;16.10;56.90;;;;;;5067068;28;20025;-65
2020/12/08 06:50:28;;;;;;;3.78;3.47;;;16.00;56.80;;;;;;5075131;28;20478;-64
2020/12/08 06:52:56;;;;;;;3.60;3.30;;;16.00;56.90;;;;;;5074700;28;20416;-64
2020/12/08 06:55:22;;;;;;;5.65;3.95;;;16.10;56.60;;;;;;5074237;28;20021;-64
2020/12/08 06:57:48;;;;;;;4.20;3.60;;;16.10;56.50;;;;;;5075431;28;20028;-63
2020/12/08 07:00:14;;;;;;;3.67;3.35;;;16.10;56.40;;;;;;5075352;28;20024;-63
2020/12/08 07:02:51;;;;;;;4.30;3.50;;;16.10;56.40;;;;;;5074616;28;20084;-63
2020/12/08 07:05:35;;;;;;;4.00;3.60;;;16.20;56.40;;;;;;5075646;28;20119;-64
2020/12/08 07:08:06;;;;;;;5.47;4.28;;;16.20;56.70;;;;;;5075776;28;20017;-64
2020/12/08 07:10:37;;;;;;;6.55;4.18;;;16.20;56.70;;;;;;5057356;28;20035;-64
2020/12/08 07:13:15;;;;;;;5.82;3.67;;;16.30;56.60;;;;;;5075695;28;20025;-64
2020/12/08 07:15:41;;;;;;;6.45;3.75;;;16.30;56.50;;;;;;5075289;28;20033;-63
2020/12/08 07:18:10;;;;;;;4.93;3.53;;;16.30;56.30;;;;;;5075533;28;20012;-63
2020/12/08 07:20:35;;;;;;;5.28;4.07;;;16.30;56.20;;;;;;5075012;28;20031;-63
2020/12/08 07:23:03;;;;;;;4.75;3.42;;;16.40;56.20;;;;;;5075286;28;20024;-63
2020/12/08 07:25:30;;;;;;;5.78;3.35;;;16.40;56.20;;;;;;5074991;28;20048;-63
2020/12/08 07:27:56;;;;;;;3.95;3.47;;;16.40;56.00;;;;;;5075348;28;20075;-63
2020/12/08 07:30:27;;;;;;;3.80;3.40;;;16.40;55.90;;;;;;5074891;28;20057;-63
2020/12/08 07:32:54;;;;;;;4.43;3.60;;;16.40;55.90;;;;;;5075952;27;20032;-64
2020/12/08 07:35:25;;;;;;;4.35;3.90;;;16.40;55.80;;;;;;5094326;28;20048;-63
2020/12/08 07:37:59;;;;;;;3.90;3.38;;;16.10;55.50;;;;;;5095283;28;20024;-64
2020/12/08 07:40:35;;;;;;;4.15;3.22;;;16.40;55.60;;;;;;5095559;28;20031;-63
2020/12/08 07:43:02;;;;;;;3.92;3.50;;;16.50;55.70;;;;;;5094935;28;20023;-63
2020/12/08 07:45:29;;;;;;;3.92;3.47;;;16.40;55.40;;;;;;5094525;28;20035;-62
2020/12/08 07:47:58;;;;;;;4.50;3.83;;;16.50;55.40;;;;;;5095227;28;20012;-62
2020/12/08 07:50:26;;;;;;;4.68;3.30;;;16.50;55.40;;;;;;5095163;28;20386;-63
2020/12/08 07:53:10;;;;;;;5.38;3.35;;;16.50;55.40;;;;;;5095090;28;20065;-66
2020/12/08 07:55:44;;;;;;;4.95;4.05;;;16.50;55.10;;;;;;5095027;28;20162;-63
2020/12/08 07:58:10;;;;;;;4.93;3.65;;;16.60;54.90;;;;;;5095031;28;20028;-63
2020/12/08 08:00:36;;;;;;;4.32;3.70;;;16.60;54.80;;;;;;5076561;28;20374;-62
2020/12/08 08:03:02;;;;;;;4.07;3.47;;;16.60;54.90;;;;;;5094912;28;20094;-62
2020/12/08 08:05:29;;;;;;;7.05;3.97;;;16.60;54.80;;;;;;5076819;28;20070;-63
2020/12/08 08:07:54;;;;;;;4.93;4.10;;;16.60;54.60;;;;;;5094863;28;20055;-62
2020/12/08 08:10:20;;;;;;;5.60;3.85;;;16.60;54.50;;;;;;5094298;28;20059;-63
2020/12/08 08:12:45;;;;;;;3.42;3.10;;;16.60;54.60;;;;;;5094753;28;20024;-63
2020/12/08 08:15:11;;;;;;;4.05;3.60;;;16.60;54.60;;;;;;5094749;28;20047;-63
2020/12/08 08:17:37;;;;;;;4.47;3.55;;;16.60;54.40;;;;;;5094720;28;20028;-62
2020/12/08 08:20:06;;;;;;;3.60;2.95;;;16.60;54.30;;;;;;5094426;28;20016;-63
2020/12/08 08:22:32;;;;;;;4.30;3.40;;;16.70;54.30;;;;;;5094222;28;20462;-62
2020/12/08 08:24:57;;;;;;;3.95;3.55;;;16.70;54.30;;;;;;5094498;28;20032;-62
2020/12/08 08:27:23;;;;;;;3.90;3.10;;;16.70;54.20;;;;;;5094129;28;20505;-62
2020/12/08 08:29:49;;;;;;;4.35;3.58;;;16.70;54.20;;;;;;5094248;28;20035;-62
2020/12/08 08:32:15;;;;;;;5.03;3.65;;;16.80;54.10;;;;;;5093915;28;20103;-62
2020/12/08 08:34:40;;;;;;;4.03;3.10;;;16.80;54.00;;;;;;5094507;28;20052;-62
2020/12/08 08:37:06;;;;;;;3.78;2.97;;;16.80;54.00;;;;;;5093532;28;20024;-63
2020/12/08 08:39:31;;;;;;;4.97;3.65;;;16.80;54.00;;;;;;5093494;28;20051;-63
2020/12/08 08:41:57;;;;;;;3.80;3.20;;;16.90;54.00;;;;;;5094164;28;20056;-64
2020/12/08 08:44:23;;;;;;;3.60;3.20;;;18.90;55.00;;;;;;5093602;28;20043;-62
2020/12/08 08:46:48;;;;;;;3.83;3.45;;;16.90;53.80;;;;;;5094086;28;20016;-63
2020/12/08 08:49:14;;;;;;;5.25;3.55;;;17.00;53.70;;;;;;5094071;28;20091;-62
2020/12/08 08:51:44;;;;;;;5.70;3.30;;;17.10;53.60;;;;;;5093920;28;20027;-62
2020/12/08 08:54:11;;;;;;;3.67;2.58;;;17.10;53.40;;;;;;5093870;28;20424;-64
2020/12/08 08:56:36;;;;;;;3.53;2.63;;;17.30;53.20;;;;;;5093925;28;20082;-62
2020/12/08 08:59:03;;;;;;;2.75;2.53;;;17.40;52.90;;;;;;5093953;28;20446;-62
2020/12/08 09:01:28;;;;;;;4.32;2.90;;;17.50;52.90;;;;;;5093650;28;20012;-62
2020/12/08 09:03:54;;;;;;;4.15;2.25;;;17.50;52.90;;;;;;5093771;28;20382;-62
2020/12/08 09:06:20;;;;;;;3.22;2.90;;;17.60;52.80;;;;;;5093708;28;20016;-63
2020/12/08 09:08:45;;;;;;;3.55;3.08;;;17.70;52.70;;;;;;5093728;28;20020;-62
2020/12/08 09:11:12;;;;;;;4.10;2.90;;;17.70;52.50;;;;;;5093908;28;20020;-62
2020/12/08 09:13:37;;;;;;;3.17;2.88;;;17.70;52.40;;;;;;5093320;28;20513;-62
2020/12/08 09:16:04;;;;;;;2.90;2.60;;;17.80;52.30;;;;;;5093724;28;20059;-62
2020/12/08 09:18:29;;;;;;;4.13;2.97;;;18.00;52.30;;;;;;5093540;28;20024;-62
2020/12/08 09:20:55;;;;;;;3.05;2.60;;;17.90;52.20;;;;;;5093439;28;20641;-62
2020/12/08 09:23:22;;;;;;;3.63;2.67;;;18.00;52.10;;;;;;5093487;28;20027;-62
2020/12/08 09:25:57;;;;;;;3.20;2.78;;;18.00;52.10;;;;;;5093106;28;20127;-62
2020/12/08 09:28:25;;;;;;;3.65;2.95;;;18.00;52.00;;;;;;5093227;28;20034;-62
2020/12/08 09:30:52;;;;;;;4.97;2.40;;;18.10;52.10;;;;;;5093406;28;20024;-62
2020/12/08 09:33:30;;;;;;;3.78;2.65;;;18.00;52.30;;;;;;5093251;28;20073;-62
2020/12/08 09:35:56;;;;;;;3.88;2.90;;;17.80;52.50;;;;;;5093103;28;20402;-62
2020/12/08 09:38:21;;;;;;;4.22;3.17;;;17.80;52.70;;;;;;5093218;28;20027;-62
2020/12/08 09:40:47;;;;;;;5.82;3.08;;;17.70;52.80;;;;;;5092863;28;20016;-62
2020/12/08 09:43:13;;;;;;;3.78;3.15;;;17.60;53.50;;;;;;5093038;28;20016;-62
2020/12/08 09:45:38;;;;;;;4.82;3.20;;;17.50;53.00;;;;;;5092758;28;20036;-62
2020/12/08 09:48:04;;;;;;;5.88;3.60;;;17.40;53.30;;;;;;5092962;28;20024;-63
2020/12/08 09:50:30;;;;;;;3.42;2.95;;;17.40;53.50;;;;;;5092917;28;20300;-62
2020/12/08 09:52:56;;;;;;;3.88;3.00;;;17.30;53.60;;;;;;5092630;28;20070;-63
2020/12/08 09:55:21;;;;;;;4.32;3.25;;;17.20;53.70;;;;;;5092982;28;20028;-62
2020/12/08 09:57:47;;;;;;;3.85;3.17;;;17.20;53.70;;;;;;5092891;28;20020;-63
2020/12/08 10:00:12;;;;;;;4.80;3.60;;;17.20;53.80;;;;;;5074688;28;20028;-63
2020/12/08 10:02:38;;;;;;;4.32;3.45;;;17.10;54.00;;;;;;5092862;28;20046;-63
2020/12/08 10:05:04;;;;;;;3.63;3.33;;;17.10;54.10;;;;;;5092764;28;20036;-63
2020/12/08 10:07:29;;;;;;;5.07;2.97;;;17.00;54.10;;;;;;5092527;28;20020;-62
2020/12/08 10:09:55;;;;;;;3.47;2.80;;;17.00;54.10;;;;;;5092702;28;20103;-63
2020/12/08 10:12:21;;;;;;;3.20;2.90;;;16.90;54.20;;;;;;5092562;28;20028;-63
2020/12/08 10:14:47;;;;;;;2.90;2.60;;;16.90;54.10;;;;;;5092768;28;20027;-62
2020/12/08 10:17:14;;;;;;;3.60;3.20;;;17.00;54.00;;;;;;5092705;28;20043;-62
2020/12/08 10:19:46;;;;;;;2.70;2.42;;;17.10;53.90;;;;;;5092597;28;20019;-62
2020/12/08 10:22:13;;;;;;;3.08;2.67;;;17.20;53.60;;;;;;5092699;28;20023;-63
2020/12/08 10:24:39;;;;;;;3.88;2.60;;;17.30;53.50;;;;;;5092591;28;20107;-62
2020/12/08 10:27:06;;;;;;;3.40;2.80;;;17.40;53.20;;;;;;5092730;28;20024;-63
2020/12/08 10:29:32;;;;;;;3.92;3.10;;;17.50;53.00;;;;;;5092664;28;20042;-62
2020/12/08 10:31:58;;;;;;;3.55;2.30;;;17.60;52.90;;;;;;5092578;28;20024;-62
2020/12/08 10:34:23;;;;;;;3.10;2.47;;;17.70;53.00;;;;;;5092937;28;20059;-62
2020/12/08 10:36:49;;;;;;;2.38;2.17;;;17.70;52.80;;;;;;5092482;28;20043;-62
2020/12/08 10:39:15;;;;;;;3.03;2.70;;;17.70;52.70;;;;;;5092537;28;20028;-63
2020/12/08 10:41:41;;;;;;;3.58;2.38;;;17.70;52.80;;;;;;5092405;28;20028;-62
2020/12/08 10:44:06;;;;;;;2.53;2.33;;;17.60;52.90;;;;;;5092629;28;20028;-62
2020/12/08 10:46:36;;;;;;;3.13;2.70;;;17.60;53.00;;;;;;5092384;28;20016;-63
2020/12/08 10:49:03;;;;;;;5.00;2.72;;;17.60;53.00;;;;;;5092353;28;20020;-63
2020/12/08 10:51:28;;;;;;;4.00;2.63;;;17.60;53.00;;;;;;5092249;28;20093;-63
2020/12/08 10:53:54;;;;;;;2.63;2.42;;;17.50;53.10;;;;;;5092619;28;20458;-63
2020/12/08 10:56:21;;;;;;;4.05;2.40;;;17.50;53.20;;;;;;5092325;28;20046;-63
2020/12/08 10:58:47;;;;;;;3.45;2.55;;;17.50;53.20;;;;;;5092211;28;20020;-62
2020/12/08 11:01:25;;;;;;;3.35;2.45;;;17.50;53.30;;;;;;5093356;28;20021;-63
2020/12/08 11:03:52;;;;;;;2.33;2.13;;;17.40;53.30;;;;;;5095799;28;20036;-62
2020/12/08 11:06:24;;;;;;;3.05;2.40;;;17.40;53.40;;;;;;5096071;28;20102;-62
2020/12/08 11:08:51;;;;;;;3.10;2.70;;;17.40;53.40;;;;;;5095126;28;20420;-62
2020/12/08 11:11:25;;;;;;;3.90;2.88;;;17.40;53.50;;;;;;5095383;28;20488;-62
2020/12/08 11:13:52;;;;;;;4.22;2.65;;;17.40;53.50;;;;;;5094430;28;20106;-63
2020/12/08 11:16:18;;;;;;;2.80;2.58;;;17.40;53.60;;;;;;5095728;28;20445;-62
2020/12/08 11:18:44;;;;;;;3.92;2.70;;;17.30;53.60;;;;;;5095763;28;20024;-63
2020/12/08 11:21:10;;;;;;;3.38;2.85;;;17.30;53.60;;;;;;5095514;28;20039;-62
2020/12/08 11:23:36;;;;;;;3.08;2.78;;;17.30;53.70;;;;;;5095406;28;20035;-63
2020/12/08 11:26:02;;;;;;;2.95;2.55;;;17.30;53.70;;;;;;5095612;28;20058;-62
2020/12/08 11:28:27;;;;;;;3.08;2.60;;;17.30;53.70;;;;;;5095482;28;20494;-63
2020/12/08 11:30:53;;;;;;;3.50;2.58;;;17.30;53.80;;;;;;5095565;28;20045;-63
2020/12/08 11:33:19;;;;;;;2.45;2.25;;;17.20;53.70;;;;;;5095322;28;20025;-63
2020/12/08 11:35:51;;;;;;;3.22;2.80;;;17.40;53.90;;;;;;5095065;28;20521;-62
2020/12/08 11:38:17;;;;;;;2.97;2.42;;;17.20;53.80;;;;;;5095415;28;20165;-62
2020/12/08 11:40:42;;;;;;;2.45;2.22;;;17.20;53.80;;;;;;5095423;28;20036;-62
2020/12/08 11:43:08;;;;;;;2.90;2.33;;;17.20;53.90;;;;;;5095019;28;20420;-62
2020/12/08 11:45:33;;;;;;;3.63;2.75;;;17.20;53.90;;;;;;5095277;28;20039;-62
2020/12/08 11:47:59;;;;;;;5.13;2.38;;;17.20;54.10;;;;;;5095231;28;20078;-62
2020/12/08 11:50:25;;;;;;;3.13;2.78;;;17.20;54.20;;;;;;5095369;28;20509;-62
2020/12/08 11:52:50;;;;;;;3.53;2.03;;;17.20;54.10;;;;;;5095177;28;20437;-62
2020/12/08 11:55:16;;;;;;;2.92;2.63;;;17.20;54.10;;;;;;5095162;28;20130;-62
2020/12/08 11:57:41;;;;;;;4.10;3.10;;;17.20;54.10;;;;;;5095069;28;20028;-62
2020/12/08 12:00:08;;;;;;;3.38;2.60;;;17.20;54.10;;;;;;5094920;28;20056;-62
2020/12/08 12:02:34;;;;;;;3.63;2.53;;;17.20;54.10;;;;;;5094894;28;20034;-63
2020/12/08 12:05:00;;;;;;;2.78;2.50;;;17.10;54.10;;;;;;5094882;28;20389;-62
2020/12/08 12:07:25;;;;;;;2.60;2.22;;;17.10;54.10;;;;;;5094549;28;20024;-62
2020/12/08 12:09:51;;;;;;;3.35;2.38;;;17.10;54.10;;;;;;5094798;28;20024;-62
2020/12/08 12:12:16;;;;;;;4.05;2.83;;;17.20;54.10;;;;;;5093543;28;20016;-62
2020/12/08 12:14:42;;;;;;;2.92;2.63;;;17.10;54.10;;;;;;5094658;28;20355;-62
2020/12/08 12:17:08;;;;;;;3.47;2.78;;;17.10;54.10;;;;;;5094469;28;20020;-62
2020/12/08 12:19:33;;;;;;;4.45;2.55;;;17.10;54.10;;;;;;5094639;28;20328;-62
2020/12/08 12:22:00;;;;;;;3.15;2.85;;;17.10;54.10;;;;;;5094615;28;20408;-61
2020/12/08 12:24:25;;;;;;;3.20;2.50;;;17.10;54.10;;;;;;5094474;28;20032;-62
2020/12/08 12:26:51;;;;;;;3.45;2.92;;;17.10;54.10;;;;;;5094156;28;20426;-62
2020/12/08 12:29:17;;;;;;;3.70;2.40;;;17.10;54.10;;;;;;5094310;28;20127;-63
2020/12/08 12:31:46;;;;;;;2.60;2.40;;;17.20;54.10;;;;;;5094082;28;20016;-62
2020/12/08 12:34:12;;;;;;;3.72;2.17;;;17.20;54.10;;;;;;5094889;27;20048;-62
2020/12/08 12:36:39;;;;;;;2.95;2.50;;;17.10;54.10;;;;;;5094059;28;20370;-62
2020/12/08 12:39:04;;;;;;;4.63;2.53;;;17.20;54.10;;;;;;5094152;28;20084;-62
2020/12/08 12:41:31;;;;;;;2.95;2.55;;;17.20;54.10;;;;;;5093977;28;20543;-62
2020/12/08 12:43:57;;;;;;;4.15;2.70;;;17.20;54.10;;;;;;5094156;28;20130;-62
2020/12/08 12:46:23;;;;;;;3.67;2.60;;;17.20;54.10;;;;;;5094183;28;20028;-62